createdAt,value
2023-11-27T00:04:14.963Z,4.81
2023-11-27T00:09:16.570Z,4.77
2023-11-27T00:14:18.226Z,4.74
2023-11-27T00:19:19.875Z,4.73
2023-11-27T00:24:21.967Z,4.78
2023-11-27T00:29:23.528Z,4.80
2023-11-27T00:34:25.099Z,4.81
2023-11-27T00:39:26.700Z,4.81
2023-11-27T00:44:28.788Z,4.80
2023-11-27T00:49:30.356Z,4.78
2023-11-27T00:54:31.942Z,4.82
2023-11-27T00:59:39.740Z,4.82
2023-11-27T01:04:41.484Z,4.84
2023-11-27T01:09:43.166Z,4.89
2023-11-27T01:14:44.750Z,4.92
2023-11-27T01:19:46.382Z,4.98
2023-11-27T01:24:48.004Z,4.98
2023-11-27T01:29:50.767Z,4.97
2023-11-27T01:34:53.268Z,4.96
2023-11-27T01:39:54.878Z,4.97
2023-11-27T01:44:57.085Z,4.95
2023-11-27T01:49:58.687Z,4.91
2023-11-27T01:55:00.535Z,4.87
2023-11-27T02:00:06.181Z,4.85
2023-11-27T02:05:15.169Z,4.83
2023-11-27T02:10:17.130Z,4.77
2023-11-27T02:15:18.966Z,4.74
2023-11-27T02:20:20.733Z,4.70
2023-11-27T02:25:22.398Z,4.71
2023-11-27T02:30:24.002Z,4.73
2023-11-27T02:35:25.544Z,4.73
2023-11-27T02:40:27.729Z,4.75
2023-11-27T02:45:29.375Z,4.77
2023-11-27T02:50:30.966Z,4.82
2023-11-27T02:55:32.503Z,4.85
2023-11-27T03:00:34.607Z,4.85
2023-11-27T03:05:36.979Z,4.88
2023-11-27T03:10:39.652Z,4.85
2023-11-27T03:15:41.225Z,4.84
2023-11-27T03:20:42.768Z,4.77
2023-11-27T03:25:44.419Z,4.76
2023-11-27T03:30:46.013Z,4.77
2023-11-27T03:35:47.638Z,4.77
2023-11-27T03:40:49.178Z,4.78
2023-11-27T03:45:50.775Z,4.78
2023-11-27T03:50:52.364Z,4.76
2023-11-27T03:55:54.414Z,4.73
2023-11-27T04:00:56.108Z,4.72
2023-11-27T04:05:57.817Z,4.75
2023-11-27T04:10:59.392Z,4.73
2023-11-27T04:16:01.007Z,4.72
2023-11-27T04:21:03.502Z,4.71
2023-11-27T04:26:05.381Z,4.73
2023-11-27T04:31:07.540Z,4.77
2023-11-27T04:36:09.762Z,4.84
2023-11-27T04:41:11.383Z,4.88
2023-11-27T04:46:13.099Z,4.92
2023-11-27T04:51:14.771Z,4.96
2023-11-27T04:56:16.369Z,4.97
2023-11-27T05:01:18.035Z,4.99
2023-11-27T05:06:19.649Z,5.03
2023-11-27T05:11:21.325Z,5.09
2023-11-27T05:16:23.449Z,5.07
2023-11-27T05:21:25.143Z,5.06
2023-11-27T05:26:27.960Z,5.02
2023-11-27T05:31:29.581Z,5.03
2023-11-27T05:36:31.312Z,4.99
2023-11-27T05:41:33.032Z,4.95
2023-11-27T05:46:35.850Z,4.95
2023-11-27T05:51:40.825Z,4.96
2023-11-27T05:56:42.451Z,4.97
2023-11-27T06:01:44.725Z,4.97
2023-11-27T06:06:46.298Z,4.94
2023-11-27T06:11:47.854Z,4.92
2023-11-27T06:16:49.514Z,4.88
2023-11-27T06:21:51.167Z,4.84
2023-11-27T06:26:52.755Z,4.83
2023-11-27T06:31:54.774Z,4.82
2023-11-27T06:36:56.442Z,4.87
2023-11-27T06:41:58.079Z,4.89
2023-11-27T06:47:00.693Z,4.91
2023-11-27T06:52:02.471Z,4.90
2023-11-27T06:57:04.547Z,4.90
2023-11-27T07:02:07.030Z,4.88
2023-11-27T07:07:10.447Z,4.91
2023-11-27T07:12:15.544Z,4.94
2023-11-27T07:17:17.329Z,4.95
2023-11-27T07:22:19.000Z,4.99
2023-11-27T07:27:20.681Z,5.04
2023-11-27T07:32:22.446Z,5.10
2023-11-27T07:37:24.096Z,5.10
2023-11-27T07:42:26.290Z,5.19
2023-11-27T07:47:27.980Z,5.21
2023-11-27T07:52:29.782Z,5.23
2023-11-27T07:57:35.084Z,5.29
2023-11-27T08:02:36.668Z,5.26
2023-11-27T08:07:38.293Z,5.27
2023-11-27T08:12:39.882Z,5.29
2023-11-27T08:17:42.506Z,5.33
2023-11-27T08:22:44.623Z,5.38
2023-11-27T08:27:48.017Z,5.38
2023-11-27T08:32:50.903Z,5.32
2023-11-27T08:37:52.516Z,5.25
2023-11-27T08:42:54.309Z,5.17
2023-11-27T08:47:56.695Z,5.09
2023-11-27T08:52:59.878Z,5.02
2023-11-27T08:58:05.253Z,4.98
2023-11-27T09:03:07.870Z,4.99
2023-11-27T09:08:10.312Z,5.00
2023-11-27T09:13:13.431Z,5.05
2023-11-27T09:18:15.615Z,5.04
2023-11-27T09:23:17.822Z,5.05
2023-11-27T09:28:20.197Z,5.10
2023-11-27T09:33:22.938Z,5.10
2023-11-27T09:38:24.595Z,5.05
2023-11-27T09:43:30.144Z,5.04
2023-11-27T09:48:40.030Z,5.02
2023-11-27T09:53:48.968Z,5.03
2023-11-27T09:58:50.889Z,5.10
2023-11-27T10:03:53.622Z,5.18
2023-11-27T10:09:05.198Z,5.20
2023-11-27T10:19:20.780Z,5.34
2023-11-27T10:24:22.603Z,5.46
2023-11-27T10:29:27.941Z,5.57
2023-11-27T10:34:34.818Z,5.61
2023-11-27T10:39:36.858Z,5.68
2023-11-27T10:44:39.472Z,5.74
2023-11-27T10:49:44.786Z,5.75
2023-11-27T10:54:50.012Z,5.77
2023-11-27T10:59:52.878Z,5.79
2023-11-27T11:04:56.911Z,5.78
2023-11-27T11:10:00.552Z,5.78
2023-11-27T11:15:03.822Z,5.77
2023-11-27T11:20:27.155Z,5.74
2023-11-27T11:25:37.947Z,5.75
2023-11-27T11:30:40.558Z,5.82
2023-11-27T11:35:46.691Z,5.92
2023-11-27T11:40:49.271Z,5.96
2023-11-27T11:45:51.769Z,6.02
2023-11-27T11:50:53.398Z,6.07
2023-11-27T11:55:57.074Z,6.13
2023-11-27T12:01:03.290Z,6.15
2023-11-27T12:06:14.892Z,6.18
2023-11-27T12:11:16.933Z,6.11
2023-11-27T12:16:22.693Z,6.06
2023-11-27T12:21:25.805Z,6.08
2023-11-27T12:26:27.925Z,6.14
2023-11-27T12:31:30.289Z,6.17
2023-11-27T12:36:32.192Z,6.12
2023-11-27T12:41:35.886Z,6.12
2023-11-27T12:46:51.905Z,6.14
2023-11-27T12:51:58.578Z,6.15
2023-11-27T12:57:06.689Z,6.16
2023-11-27T13:02:08.497Z,6.13
2023-11-27T13:07:14.658Z,6.15
2023-11-27T13:12:17.111Z,6.15
2023-11-27T13:17:21.111Z,6.17
2023-11-27T13:22:23.994Z,6.19
2023-11-27T13:27:25.973Z,6.23
2023-11-27T13:32:27.643Z,6.29
2023-11-27T13:37:36.213Z,6.35
2023-11-27T13:42:38.229Z,6.38
2023-11-27T13:47:41.104Z,6.39
2023-11-27T13:52:44.001Z,6.40
2023-11-27T13:57:49.837Z,6.39
2023-11-27T14:02:51.538Z,6.41
2023-11-27T14:07:53.613Z,6.43
2023-11-27T14:13:02.868Z,6.41
2023-11-27T14:18:23.831Z,6.43
2023-11-27T14:23:51.064Z,6.43
2023-11-27T14:28:58.782Z,6.46
2023-11-27T14:34:26.237Z,6.44
2023-11-27T14:39:39.477Z,6.45
2023-11-27T14:44:42.044Z,6.41
2023-11-27T14:49:45.049Z,6.41
2023-11-27T14:54:47.452Z,6.39
2023-11-27T14:59:51.787Z,6.40
2023-11-27T15:04:53.918Z,6.40
2023-11-27T15:09:56.676Z,6.37
2023-11-27T15:14:58.304Z,6.35
2023-11-27T15:20:00.387Z,6.27
2023-11-27T15:25:05.436Z,6.05
2023-11-27T15:30:10.126Z,6.01
2023-11-27T15:35:13.055Z,5.92
2023-11-27T15:40:21.811Z,5.81
2023-11-27T15:45:23.583Z,5.77
2023-11-27T15:50:31.742Z,5.77
2023-11-27T15:55:35.033Z,5.75
2023-11-27T16:00:37.397Z,5.74
2023-11-27T16:05:39.363Z,5.71
2023-11-27T16:10:44.465Z,5.65
2023-11-27T16:15:47.998Z,5.65
2023-11-27T16:20:49.987Z,5.65
2023-11-27T16:25:51.744Z,5.67
2023-11-27T16:30:53.695Z,5.69
2023-11-27T16:35:57.217Z,5.68
2023-11-27T16:40:58.988Z,5.67
2023-11-27T16:46:00.811Z,5.63
2023-11-27T16:51:02.805Z,5.61
2023-11-27T16:56:05.882Z,5.58
2023-11-27T17:01:08.031Z,5.56
2023-11-27T17:06:10.696Z,5.53
2023-11-27T17:11:12.633Z,5.51
2023-11-27T17:16:14.441Z,5.49
2023-11-27T17:21:17.041Z,5.49
2023-11-27T17:26:19.485Z,5.48
2023-11-27T17:31:21.889Z,5.46
2023-11-27T17:36:23.636Z,5.45
2023-11-27T17:41:25.325Z,5.43
2023-11-27T17:46:27.069Z,5.42
2023-11-27T17:51:29.867Z,5.40
2023-11-27T17:56:39.593Z,5.41
2023-11-27T18:01:44.828Z,5.42
2023-11-27T18:06:47.456Z,5.41
2023-11-27T18:11:50.131Z,5.40
2023-11-27T18:16:51.770Z,5.40
2023-11-27T18:21:53.357Z,5.41
2023-11-27T18:26:54.981Z,5.38
2023-11-27T18:31:56.624Z,5.37
2023-11-27T18:37:00.157Z,5.38
2023-11-27T18:42:04.673Z,5.36
2023-11-27T18:47:08.767Z,5.38
2023-11-27T18:52:12.499Z,5.42
2023-11-27T18:57:14.269Z,5.47
2023-11-27T19:02:17.264Z,5.43
2023-11-27T19:07:19.103Z,5.41
2023-11-27T19:12:20.812Z,5.37
2023-11-27T19:17:23.096Z,5.35
2023-11-27T19:22:24.897Z,5.34
2023-11-27T19:27:26.972Z,5.31
2023-11-27T19:32:29.850Z,5.29
2023-11-27T19:37:31.536Z,5.25
2023-11-27T19:42:33.207Z,5.20
2023-11-27T19:47:35.297Z,5.16
2023-11-27T19:52:37.533Z,5.11
2023-11-27T19:57:39.325Z,5.11
2023-11-27T20:02:42.498Z,5.07
2023-11-27T20:07:44.253Z,4.99
2023-11-27T20:12:46.010Z,4.94
2023-11-27T20:17:47.672Z,4.89
2023-11-27T20:22:49.399Z,4.83
2023-11-27T20:27:52.186Z,4.81
2023-11-27T20:33:02.111Z,4.82
2023-11-27T20:38:04.634Z,4.86
2023-11-27T20:43:07.212Z,4.84
2023-11-27T20:48:08.845Z,4.87
2023-11-27T20:53:10.392Z,4.87
2023-11-27T20:58:13.897Z,4.83
2023-11-27T21:03:16.828Z,4.84
2023-11-27T21:08:21.345Z,4.76
2023-11-27T21:13:25.418Z,4.76
2023-11-27T21:18:27.215Z,4.74
2023-11-27T21:23:28.984Z,4.76
2023-11-27T21:28:31.127Z,4.77
2023-11-27T21:33:32.696Z,4.73
2023-11-27T21:38:34.850Z,4.71
2023-11-27T21:43:36.640Z,4.70
2023-11-27T21:48:38.837Z,4.67
2023-11-27T21:53:40.366Z,4.70
2023-11-27T21:58:42.085Z,4.71
2023-11-27T22:03:43.919Z,4.73
2023-11-27T22:08:45.644Z,4.72
2023-11-27T22:13:47.245Z,4.67
2023-11-27T22:18:48.811Z,4.68
2023-11-27T22:23:51.974Z,4.65
2023-11-27T22:28:53.637Z,4.64
2023-11-27T22:33:55.328Z,4.65
2023-11-27T22:38:57.105Z,4.68
2023-11-27T22:43:59.358Z,4.60
2023-11-27T22:49:01.406Z,4.59
2023-11-27T22:54:03.111Z,4.61
2023-11-27T22:59:11.604Z,4.60
2023-11-27T23:04:22.011Z,4.57
2023-11-27T23:09:24.324Z,4.59
2023-11-27T23:14:26.325Z,4.60
2023-11-27T23:19:28.142Z,4.59
2023-11-27T23:24:29.692Z,4.52
2023-11-27T23:29:31.639Z,4.50
2023-11-27T23:34:33.256Z,4.51
2023-11-27T23:39:34.928Z,4.51
2023-11-27T23:44:36.539Z,4.46
2023-11-27T23:49:38.749Z,4.43
2023-11-27T23:54:40.737Z,4.43
2023-11-27T23:59:42.583Z,4.48
